Time;durP1;ratioP1;P1;durP2;ratioP2;P2;SDS_P1;SDS_P2;PMS_P1;PMS_P2;Temp;Humidity;BMP_temperature;BMP_pressure;BME280_temperature;BME280_humidity;BME280_pressure;Samples;Min_cycle;Max_cycle;Signal;HPM_P1;HPM_P2
2022/12/27 00:01:34;;;;;;;8.38;2.70;;;;;;;5.64;62.73;100870.22;5011333;28;20049;-59
2022/12/27 00:04:05;;;;;;;4.10;2.10;;;;;;;5.43;63.32;100880.38;5015052;28;20081;-61
2022/12/27 00:06:32;;;;;;;4.80;1.60;;;;;;;5.56;63.07;100876.28;5010615;28;20057;-59
2022/12/27 00:09:01;;;;;;;8.68;2.75;;;;;;;5.42;63.14;100881.50;5009808;28;20052;-59
2022/12/27 00:11:29;;;;;;;7.20;2.28;;;;;;;5.44;63.49;100886.75;5012394;28;20479;-59
2022/12/27 00:13:59;;;;;;;7.20;2.63;;;;;;;5.52;63.17;100880.69;5010933;28;20046;-59
2022/12/27 00:16:26;;;;;;;8.35;2.17;;;;;;;5.51;63.44;100883.75;4999658;28;20054;-60
2022/12/27 00:18:53;;;;;;;7.82;2.33;;;;;;;5.49;63.45;100886.75;5011610;28;20057;-62
2022/12/27 00:21:22;;;;;;;6.15;2.13;;;;;;;5.50;64.05;100891.19;5011217;28;20054;-62
2022/12/27 00:23:53;;;;;;;5.72;2.00;;;;;;;5.39;64.03;100890.31;5001777;28;20046;-62
2022/12/27 00:26:22;;;;;;;7.22;2.90;;;;;;;5.41;64.25;100879.00;5002611;28;20057;-62
2022/12/27 00:28:50;;;;;;;8.90;2.95;;;;;;;5.44;64.17;100879.28;5015022;28;20050;-61
2022/12/27 00:31:20;;;;;;;6.88;2.25;;;;;;;5.48;64.53;100882.31;5015312;28;20407;-59
2022/12/27 00:33:50;;;;;;;5.15;2.40;;;;;;;5.49;64.10;100875.72;5013993;28;20080;-60
2022/12/27 00:36:18;;;;;;;;;;;;;;;5.44;64.30;100873.78;5015598;28;20073;-59
2022/12/27 00:38:46;;;;;;;9.35;2.42;;;;;;;5.57;64.22;100872.44;5013833;28;19933;-59
2022/12/27 00:41:14;;;;;;;6.90;2.75;;;;;;;5.52;64.77;100880.69;5015482;28;20061;-58
2022/12/27 00:43:42;;;;;;;5.93;2.55;;;;;;;5.44;64.41;100870.19;5014896;28;20065;-59
2022/12/27 00:46:10;;;;;;;5.97;2.70;;;;;;;5.46;64.88;100870.75;5012400;28;20079;-60
2022/12/27 00:48:39;;;;;;;6.88;2.60;;;;;;;5.42;65.07;100872.38;5015650;28;20057;-60
2022/12/27 00:51:10;;;;;;;8.73;2.63;;;;;;;5.55;64.80;100874.63;5012794;28;20119;-59
2022/12/27 00:53:38;;;;;;;7.30;2.65;;;;;;;5.50;64.82;100863.53;5015013;28;20058;-59
2022/12/27 00:56:07;;;;;;;7.25;2.35;;;;;;;5.47;65.51;100873.22;5014620;28;20060;-59
2022/12/27 00:58:34;;;;;;;6.47;2.50;;;;;;;5.53;64.99;100873.25;5014008;28;20058;-59
2022/12/27 01:01:06;;;;;;;7.68;2.63;;;;;;;5.49;65.14;100870.19;5013323;28;20145;-59
2022/12/27 01:03:34;;;;;;;9.70;2.72;;;;;;;5.49;65.07;100882.06;5012898;28;20061;-59
2022/12/27 01:06:06;;;;;;;5.72;2.58;;;;;;;5.41;65.36;100885.34;5014091;28;20053;-59
2022/12/27 01:08:33;;;;;;;10.52;2.85;;;;;;;5.41;65.76;100879.81;5013336;28;20057;-61
2022/12/27 01:11:00;;;;;;;8.02;2.90;;;;;;;5.56;65.42;100880.97;5010423;28;20057;-59
2022/12/27 01:13:28;;;;;;;9.10;2.97;;;;;;;5.63;65.29;100879.63;5011305;28;20514;-60
2022/12/27 01:15:55;;;;;;;7.15;2.78;;;;;;;5.62;65.47;100886.25;5011680;28;20049;-60
2022/12/27 01:18:22;;;;;;;9.40;3.05;;;;;;;5.49;66.45;100893.13;5014081;28;20058;-60
2022/12/27 01:20:52;;;;;;;7.25;2.35;;;;;;;5.58;65.81;100887.91;5015129;28;20054;-59
2022/12/27 01:23:21;;;;;;;7.22;3.17;;;;;;;5.55;65.65;100896.75;5014540;28;20413;-59
2022/12/27 01:25:48;;;;;;;7.53;2.60;;;;;;;5.76;65.55;100896.81;5011781;28;20046;-59
2022/12/27 01:28:15;;;;;;;7.25;2.10;;;;;;;5.78;65.31;100900.97;5014513;28;20056;-59
2022/12/27 01:30:43;;;;;;;6.13;2.22;;;;;;;5.78;65.95;100894.63;5010928;28;20061;-59
2022/12/27 01:33:10;;;;;;;6.80;2.63;;;;;;;5.75;65.67;100901.50;5012420;28;20058;-59
2022/12/27 01:35:37;;;;;;;6.25;2.45;;;;;;;5.76;65.43;100905.94;5013169;28;20065;-59
2022/12/27 01:38:05;;;;;;;8.90;2.88;;;;;;;5.73;65.66;100911.16;5013515;28;20065;-59
2022/12/27 01:40:35;;;;;;;11.07;2.67;;;;;;;5.70;65.96;100915.31;5012885;28;20065;-60
2022/12/27 01:43:02;;;;;;;4.18;2.50;;;;;;;5.74;65.87;100905.38;5012336;28;20101;-59
2022/12/27 01:45:32;;;;;;;7.13;2.80;;;;;;;5.77;66.02;100907.56;5015929;28;20049;-60
2022/12/27 01:48:03;;;;;;;9.70;3.10;;;;;;;5.72;65.99;100909.50;5013757;28;20050;-60
2022/12/27 01:50:34;;;;;;;6.03;2.92;;;;;;;5.63;66.40;100904.50;5013843;28;20057;-59
2022/12/27 01:53:06;;;;;;;6.90;2.50;;;;;;;5.81;66.10;100905.13;5021533;28;20045;-59
2022/12/27 01:55:42;;;;;;;7.78;2.50;;;;;;;5.80;66.10;100906.22;5020151;28;20061;-59
2022/12/27 01:58:13;;;;;;;6.80;2.80;;;;;;;5.73;66.74;100913.94;5012829;28;20376;-60
2022/12/27 02:00:43;;;;;;;8.30;2.85;;;;;;;5.79;66.53;100924.72;5010915;28;20057;-60
2022/12/27 02:03:13;;;;;;;6.38;2.45;;;;;;;5.90;66.19;100912.63;5012154;28;20053;-60
2022/12/27 02:05:42;;;;;;;7.45;3.13;;;;;;;6.00;66.02;100922.88;5013054;28;20058;-59
2022/12/27 02:08:20;;;;;;;6.28;2.25;;;;;;;6.08;65.65;100927.88;5013375;28;20058;-59
2022/12/27 02:10:50;;;;;;;8.95;2.90;;;;;;;6.10;65.96;100931.19;5012785;28;20073;-60
2022/12/27 02:13:23;;;;;;;10.38;3.25;;;;;;;6.19;65.95;100923.19;5010902;28;20053;-59
2022/12/27 02:15:50;;;;;;;6.50;2.70;;;;;;;6.20;65.81;100929.59;5013305;28;20057;-60
2022/12/27 02:18:18;;;;;;;6.30;2.47;;;;;;;6.29;65.63;100933.47;5010942;28;20065;-59
2022/12/27 02:21:10;;;;;;;5.00;2.42;;;;;;;6.35;65.60;100942.59;5012707;28;20057;-59
2022/12/27 02:24:02;;;;;;;4.85;2.30;;;;;;;6.25;65.43;100929.56;5013959;28;20054;-60
2022/12/27 02:26:41;;;;;;;4.95;2.72;;;;;;;6.17;65.79;100942.00;5009670;28;20053;-59
2022/12/27 02:29:28;;;;;;;8.70;2.87;;;;;;;6.20;65.98;100941.47;4994239;28;20050;-60
2022/12/27 02:32:04;;;;;;;7.05;2.65;;;;;;;6.31;65.19;100939.53;5011747;28;20480;-61
2022/12/27 02:34:38;;;;;;;8.15;3.20;;;;;;;6.20;65.55;100935.94;5010977;28;20054;-60
2022/12/27 02:37:12;;;;;;;8.68;3.17;;;;;;;6.25;66.07;100935.09;5012534;28;20064;-59
2022/12/27 02:39:45;;;;;;;5.18;2.95;;;;;;;6.26;66.19;100939.56;5012563;28;20415;-59
2022/12/27 02:53:40;;;;;;;7.25;3.50;;;;;;;6.03;66.84;100929.81;5013993;28;20068;-61
2022/12/27 02:59:23;;;;;;;9.32;4.15;;;;;;;5.89;67.82;100932.22;4993550;28;20053;-60
2022/12/27 03:05:06;;;;;;;8.25;3.72;;;;;;;5.92;68.02;100934.44;4999299;28;20065;-59
2022/12/27 03:07:40;;;;;;;9.02;3.30;;;;;;;5.96;67.96;100941.13;4993400;28;20058;-59
2022/12/27 03:16:22;;;;;;;6.15;3.00;;;;;;;6.12;67.97;100939.22;4990957;28;20061;-59
2022/12/27 03:19:06;;;;;;;8.90;3.30;;;;;;;5.99;68.04;100940.59;4993532;28;20054;-59
2022/12/27 03:27:16;;;;;;;9.20;3.63;;;;;;;6.03;68.08;100940.88;5017636;28;20065;-60
2022/12/27 03:35:26;;;;;;;7.03;3.03;;;;;;;6.07;67.92;100937.28;5018200;28;20069;-59
2022/12/27 03:38:04;;;;;;;9.45;3.60;;;;;;;6.08;68.32;100938.94;5010908;28;20052;-60
2022/12/27 03:43:09;;;;;;;5.47;2.75;;;;;;;6.08;67.99;100944.47;5012618;28;20506;-60
2022/12/27 03:43:28;;;;;;;8.45;3.40;;;;;;;6.06;68.08;100943.09;5012873;28;20062;-60
2022/12/27 03:48:56;;;;;;;5.90;3.40;;;;;;;6.16;68.32;100954.19;5013782;28;20064;-63
2022/12/27 03:51:29;;;;;;;7.65;4.28;;;;;;;6.25;67.86;100954.47;5011384;28;20058;-62
2022/12/27 03:54:05;;;;;;;6.75;3.58;;;;;;;6.23;68.22;100959.44;4993081;28;20066;-63
2022/12/27 03:56:33;;;;;;;8.13;3.65;;;;;;;6.16;68.38;100958.88;4992819;28;20062;-63
2022/12/27 03:59:01;;;;;;;6.68;3.95;;;;;;;6.17;68.31;100963.31;4992898;28;20050;-63
2022/12/27 04:01:29;;;;;;;10.30;4.32;;;;;;;6.21;68.22;100970.78;4995923;28;20050;-63
2022/12/27 04:03:56;;;;;;;9.52;4.13;;;;;;;6.33;68.06;100955.88;4997093;28;20403;-63
2022/12/27 04:06:24;;;;;;;9.40;4.50;;;;;;;6.33;68.19;100959.47;4998640;28;20054;-63
2022/12/27 04:36:23;;;;;;;8.73;4.22;;;;;;;6.28;68.87;100971.38;5019311;28;20069;-63
2022/12/27 04:38:52;;;;;;;11.45;4.45;;;;;;;6.29;68.70;100977.72;5015384;28;20054;-63
2022/12/27 04:55:19;;;;;;;8.95;4.32;;;;;;;6.24;69.18;100980.50;5021002;28;20060;-63
2022/12/27 04:57:46;;;;;;;7.72;4.15;;;;;;;6.39;68.67;100986.03;5015408;28;20406;-63
2022/12/27 05:03:01;;;;;;;15.75;5.45;;;;;;;6.37;68.89;101001.25;5018422;28;20061;-63
2022/12/27 05:05:29;;;;;;;6.53;4.25;;;;;;;6.38;68.50;101000.16;5013645;28;20045;-63
2022/12/27 05:16:14;;;;;;;10.30;4.13;;;;;;;6.57;68.32;100995.75;5020488;28;20057;-63
2022/12/27 05:18:42;;;;;;;7.65;4.47;;;;;;;6.60;68.44;101011.00;5012868;28;20054;-63
2022/12/27 05:21:09;;;;;;;6.53;4.10;;;;;;;6.58;67.95;101010.44;5014629;28;20061;-63
2022/12/27 05:26:25;;;;;;;9.80;3.92;;;;;;;6.73;68.45;101013.22;5020374;28;20077;-63
2022/12/27 05:28:54;;;;;;;9.63;4.10;;;;;;;6.52;67.87;101006.00;5015068;28;20410;-63
2022/12/27 05:31:22;;;;;;;8.40;3.90;;;;;;;6.64;68.53;101014.88;5014736;28;20489;-63
2022/12/27 05:33:50;;;;;;;7.78;3.90;;;;;;;6.63;68.45;101011.25;5012826;28;20046;-62
2022/12/27 05:36:17;;;;;;;13.63;4.30;;;;;;;6.71;67.75;101023.72;5010458;28;20053;-63
2022/12/27 05:38:45;;;;;;;7.45;3.65;;;;;;;6.79;67.08;101036.22;5014714;28;20502;-63
2022/12/27 05:41:12;;;;;;;9.25;3.90;;;;;;;6.87;67.48;101028.19;5014246;28;20056;-63
2022/12/27 05:43:41;;;;;;;8.02;3.60;;;;;;;6.84;67.34;101025.13;5013435;28;20420;-63
2022/12/27 05:46:10;;;;;;;7.63;4.10;;;;;;;6.86;67.36;101048.66;5014463;28;20054;-63
2022/12/27 05:48:37;;;;;;;7.90;3.60;;;;;;;6.81;67.69;101040.34;5013350;28;20081;-63
2022/12/27 05:51:06;;;;;;;8.55;3.83;;;;;;;6.84;67.48;101041.75;5013114;28;20433;-63
2022/12/27 05:53:33;;;;;;;9.50;4.65;;;;;;;7.01;67.80;101042.28;5014376;28;20407;-63
2022/12/27 05:56:01;;;;;;;7.32;3.97;;;;;;;7.06;67.52;101038.72;5014216;28;20057;-63
2022/12/27 05:58:29;;;;;;;7.72;3.88;;;;;;;7.05;67.34;101045.34;5014332;28;20061;-63
2022/12/27 06:00:58;;;;;;;7.50;4.47;;;;;;;7.15;66.66;101039.00;5014329;28;20406;-63
2022/12/27 06:03:25;;;;;;;6.20;3.75;;;;;;;7.21;66.99;101033.16;5012830;28;20061;-63
2022/12/27 06:05:52;;;;;;;11.25;4.47;;;;;;;7.18;67.46;101035.66;5013039;28;20053;-63
2022/12/27 06:08:19;;;;;;;8.50;3.85;;;;;;;7.16;66.34;101041.50;5014012;28;20050;-63
2022/12/27 06:10:47;;;;;;;8.45;3.60;;;;;;;7.21;66.05;101038.69;5014035;28;20061;-63
2022/12/27 06:13:14;;;;;;;8.45;4.10;;;;;;;7.13;67.18;101046.75;5013971;28;20049;-63
2022/12/27 06:15:41;;;;;;;8.38;4.07;;;;;;;7.17;67.81;101043.13;5013822;28;20410;-63
2022/12/27 06:18:10;;;;;;;9.50;3.83;;;;;;;7.26;67.14;101038.69;5011789;28;20054;-63
2022/12/27 06:20:37;;;;;;;7.65;3.88;;;;;;;7.28;67.09;101042.00;5013761;28;20418;-63
2022/12/27 06:23:04;;;;;;;6.78;3.97;;;;;;;7.22;66.25;101059.75;5013306;28;20054;-63
2022/12/27 06:25:31;;;;;;;8.65;3.70;;;;;;;7.09;66.74;101046.47;5013118;28;20053;-64
2022/12/27 06:27:59;;;;;;;8.45;4.20;;;;;;;7.16;66.14;101048.94;5013603;28;20490;-63
2022/12/27 06:30:26;;;;;;;11.82;4.30;;;;;;;7.27;67.06;101068.06;5013321;28;20061;-64
2022/12/27 06:32:53;;;;;;;11.65;4.97;;;;;;;7.13;66.33;101055.88;5010555;28;20065;-63
2022/12/27 06:35:22;;;;;;;8.43;3.72;;;;;;;7.26;66.19;101058.09;5013491;28;20053;-63
2022/12/27 06:37:49;;;;;;;6.82;4.28;;;;;;;7.29;66.78;101051.19;5013142;28;20050;-63
2022/12/27 06:40:17;;;;;;;8.32;3.63;;;;;;;7.34;66.71;101058.66;5013238;28;20418;-63
2022/12/27 06:42:44;;;;;;;6.47;3.78;;;;;;;7.26;66.11;101063.63;5013493;28;20050;-63
2022/12/27 06:45:11;;;;;;;9.07;4.28;;;;;;;7.24;65.42;101065.84;5013071;28;20438;-63
2022/12/27 06:47:38;;;;;;;6.35;3.35;;;;;;;7.39;66.73;101065.03;5011307;28;20054;-64
2022/12/27 06:50:06;;;;;;;8.10;4.07;;;;;;;7.49;66.36;101064.16;5013257;28;20057;-63
2022/12/27 06:52:35;;;;;;;8.20;3.90;;;;;;;7.49;66.17;101069.72;5012952;28;20407;-64
2022/12/27 06:55:02;;;;;;;10.18;3.92;;;;;;;7.46;65.19;101062.78;5013165;28;20407;-63
2022/12/27 06:57:29;;;;;;;8.63;4.00;;;;;;;7.61;66.14;101081.34;5012804;28;20475;-64
2022/12/27 06:59:57;;;;;;;8.40;3.40;;;;;;;7.61;66.05;101070.25;5012971;28;20149;-64
2022/12/27 07:02:24;;;;;;;7.63;3.42;;;;;;;7.54;65.47;101080.81;5011072;28;20050;-63
2022/12/27 07:04:51;;;;;;;8.32;3.40;;;;;;;7.63;65.98;101070.81;5012948;28;20050;-64
2022/12/27 07:07:18;;;;;;;10.65;3.85;;;;;;;7.70;65.63;101074.09;5003458;28;20509;-63
2022/12/27 07:09:47;;;;;;;9.70;3.75;;;;;;;7.68;64.44;101075.50;5010346;28;20054;-64
2022/12/27 07:12:14;;;;;;;8.27;3.00;;;;;;;7.77;63.93;101073.84;5011291;28;20176;-63
2022/12/27 07:14:41;;;;;;;9.32;3.88;;;;;;;7.83;64.27;101081.03;5011585;28;20050;-63
2022/12/27 07:17:09;;;;;;;8.50;3.60;;;;;;;7.74;65.29;101085.47;5007943;28;20491;-64
2022/12/27 07:19:36;;;;;;;7.82;3.35;;;;;;;7.75;63.88;101089.06;5010994;28;20069;-63
2022/12/27 07:22:03;;;;;;;6.13;3.00;;;;;;;7.65;64.94;101098.25;5012325;28;20056;-64
2022/12/27 07:24:32;;;;;;;9.43;3.92;;;;;;;7.64;65.23;101096.59;5012117;28;20060;-63
2022/12/27 07:27:01;;;;;;;9.20;3.30;;;;;;;7.56;64.72;101105.47;5012189;28;20069;-64
2022/12/27 07:29:28;;;;;;;7.80;3.50;;;;;;;7.69;64.40;101104.91;5009543;28;20510;-63
2022/12/27 07:31:56;;;;;;;9.32;3.70;;;;;;;7.67;65.20;101109.91;5009997;28;20046;-63
2022/12/27 07:34:24;;;;;;;10.15;3.90;;;;;;;7.63;64.89;101111.56;5011811;28;20076;-63
2022/12/27 07:36:52;;;;;;;7.93;3.40;;;;;;;7.63;65.23;101117.94;5011900;28;20072;-63
2022/12/27 07:39:19;;;;;;;10.55;4.30;;;;;;;7.59;65.10;101122.38;5011426;28;20049;-63
2022/12/27 07:41:46;;;;;;;7.10;3.97;;;;;;;7.44;64.60;101125.16;5012447;28;20483;-63
2022/12/27 07:44:15;;;;;;;9.27;3.90;;;;;;;7.42;65.80;101124.59;5012152;28;20065;-63
2022/12/27 07:46:42;;;;;;;11.82;4.38;;;;;;;7.55;65.31;101121.28;5009763;28;20479;-63
2022/12/27 07:49:10;;;;;;;8.48;3.80;;;;;;;7.65;64.69;101128.75;5012223;28;20487;-63
2022/12/27 07:51:38;;;;;;;4.82;3.17;;;;;;;7.58;65.74;101114.31;5012038;28;20110;-63
2022/12/27 07:54:05;;;;;;;6.82;3.47;;;;;;;7.68;65.68;101120.69;5011273;28;20054;-63
2022/12/27 07:56:33;;;;;;;5.78;3.28;;;;;;;7.61;65.73;101135.97;5010956;28;20049;-64
2022/12/27 07:59:01;;;;;;;6.07;3.17;;;;;;;7.71;65.69;101133.19;5009967;28;20046;-63
2022/12/27 08:02:02;;;;;;;7.13;2.90;;;;;;;7.72;64.55;101146.75;5010562;28;20494;-64
2022/12/27 08:04:28;;;;;;;6.90;3.47;;;;;;;7.68;64.91;101133.72;5008341;28;20069;-63
2022/12/27 08:07:00;;;;;;;9.45;4.15;;;;;;;7.65;65.24;101142.63;5011923;28;20521;-63
2022/12/27 08:09:31;;;;;;;11.52;4.50;;;;;;;7.75;64.87;101137.06;5011946;28;20517;-64
2022/12/27 08:11:59;;;;;;;9.02;3.80;;;;;;;7.81;64.44;101149.81;5009735;28;20054;-63
2022/12/27 08:14:27;;;;;;;10.45;3.50;;;;;;;7.77;64.39;101150.63;5027528;28;20053;-63
2022/12/27 08:16:58;;;;;;;9.18;4.13;;;;;;;7.50;65.27;101157.31;5015665;28;20070;-63
2022/12/27 08:19:25;;;;;;;7.35;3.15;;;;;;;7.57;64.60;101157.84;5011468;28;20065;-63
2022/12/27 08:21:52;;;;;;;8.20;3.92;;;;;;;7.65;65.59;101153.72;5009709;28;20050;-63
2022/12/27 08:24:19;;;;;;;8.05;4.13;;;;;;;7.53;65.09;101167.84;5009910;28;20057;-63
2022/12/27 08:26:47;;;;;;;5.78;3.80;;;;;;;7.50;65.23;101162.88;5011552;28;20053;-63
2022/12/27 08:29:14;;;;;;;8.32;4.32;;;;;;;7.65;64.50;101154.53;5011329;28;20344;-63
2022/12/27 08:31:41;;;;;;;8.75;3.45;;;;;;;7.41;66.56;101156.19;5009502;28;20052;-62
2022/12/27 08:34:10;;;;;;;8.32;4.30;;;;;;;7.57;65.43;101163.41;5011503;28;20129;-63
2022/12/27 08:36:37;;;;;;;10.73;4.05;;;;;;;7.55;64.83;101159.25;5010241;28;20061;-63
2022/12/27 08:39:06;;;;;;;8.90;4.45;;;;;;;7.51;64.94;101158.97;5008982;28;20153;-63
2022/12/27 08:41:33;;;;;;;8.23;4.13;;;;;;;7.72;64.79;101163.38;5010113;28;20046;-62
2022/12/27 08:44:00;;;;;;;11.63;4.30;;;;;;;7.91;64.68;101162.81;5008809;28;20060;-62
2022/12/27 08:46:27;;;;;;;9.80;4.35;;;;;;;8.09;64.35;101170.56;5003648;28;20077;-62
2022/12/27 08:48:55;;;;;;;7.72;3.90;;;;;;;8.03;64.43;101168.91;5015206;28;20434;-65
2022/12/27 08:51:24;;;;;;;8.75;4.45;;;;;;;8.02;64.64;101181.13;5007788;28;20057;-63
2022/12/27 08:53:51;;;;;;;7.50;3.90;;;;;;;8.10;63.92;101172.22;5011167;28;20057;-63
2022/12/27 08:56:18;;;;;;;8.98;3.70;;;;;;;8.22;64.82;101179.44;5012740;28;20117;-63
2022/12/27 08:58:48;;;;;;;8.90;3.80;;;;;;;8.17;64.02;101171.94;5015367;28;20065;-64
2022/12/27 09:01:15;;;;;;;7.53;3.65;;;;;;;8.19;63.22;101185.53;5011637;28;20050;-64
2022/12/27 09:03:42;;;;;;;8.55;3.35;;;;;;;8.13;63.80;101188.31;5013870;28;20049;-64
2022/12/27 09:06:11;;;;;;;5.95;3.35;;;;;;;8.47;63.04;101184.09;5013198;28;20506;-64
2022/12/27 09:08:40;;;;;;;8.90;3.10;;;;;;;8.61;62.19;101175.97;5012416;28;20053;-63
2022/12/27 09:11:10;;;;;;;5.07;3.00;;;;;;;8.56;62.83;101185.16;5014730;28;20097;-63
2022/12/27 09:13:37;;;;;;;11.85;4.10;;;;;;;8.52;62.35;101184.94;5010031;28;20048;-64
2022/12/27 09:16:09;;;;;;;8.32;4.10;;;;;;;8.45;62.51;101178.00;5012396;28;20054;-64
2022/12/27 09:18:37;;;;;;;7.18;3.03;;;;;;;8.44;62.86;101184.66;5013765;28;20049;-63
2022/12/27 09:21:09;;;;;;;5.30;3.10;;;;;;;8.47;62.22;101184.94;5012691;28;20050;-64
2022/12/27 09:23:37;;;;;;;6.70;3.53;;;;;;;8.38;63.22;101191.28;5013009;28;20057;-64
2022/12/27 09:26:07;;;;;;;6.22;3.30;;;;;;;8.68;62.40;101190.41;5010730;28;20045;-64
2022/12/27 09:28:35;;;;;;;8.55;3.75;;;;;;;9.06;62.58;101188.81;5013177;28;20061;-64
2022/12/27 09:31:02;;;;;;;6.80;3.30;;;;;;;9.31;60.82;101198.13;5008941;28;20064;-63
2022/12/27 09:33:30;;;;;;;6.72;3.15;;;;;;;9.62;60.52;101195.97;5013964;28;20050;-64
2022/12/27 09:36:04;;;;;;;10.60;3.50;;;;;;;9.87;59.54;101189.34;5013700;28;20411;-64
2022/12/27 09:38:32;;;;;;;8.55;3.58;;;;;;;10.26;58.14;101193.16;5012353;28;20050;-64
2022/12/27 09:41:05;;;;;;;7.53;2.85;;;;;;;9.98;58.42;101192.03;5014619;28;20060;-64
2022/12/27 09:43:40;;;;;;;9.10;3.50;;;;;;;9.85;57.57;101193.53;5011538;28;20054;-63
2022/12/27 09:46:14;;;;;;;5.68;3.33;;;;;;;9.89;58.06;101189.91;5009328;28;20525;-64
2022/12/27 09:48:41;;;;;;;9.63;3.40;;;;;;;10.16;57.85;101194.94;5011413;28;20061;-64
2022/12/27 09:51:16;;;;;;;6.47;3.75;;;;;;;10.82;56.40;101186.94;5012341;28;20050;-64
2022/12/27 09:53:51;;;;;;;7.43;3.25;;;;;;;10.66;56.34;101194.66;5011007;28;20053;-64
2022/12/27 09:56:24;;;;;;;6.97;2.83;;;;;;;11.17;55.44;101190.38;5011786;28;20498;-64
2022/12/27 09:58:58;;;;;;;8.48;3.45;;;;;;;10.88;55.10;101182.97;5011052;28;20060;-64
2022/12/27 10:01:31;;;;;;;9.57;3.80;;;;;;;10.73;55.70;101191.50;5008030;28;20046;-64
2022/12/27 10:03:59;;;;;;;7.93;3.30;;;;;;;10.47;56.33;101196.56;5008641;28;20062;-64
2022/12/27 10:06:56;;;;;;;9.20;3.20;;;;;;;10.04;56.72;101188.91;5012388;28;20058;-64
2022/12/27 10:09:41;;;;;;;9.52;3.45;;;;;;;9.87;57.43;101194.91;5009514;28;20501;-64
2022/12/27 10:12:21;;;;;;;6.53;2.85;;;;;;;9.95;56.99;101194.28;5012212;28;20065;-64
2022/12/27 10:15:03;;;;;;;6.63;2.80;;;;;;;9.93;57.43;101198.47;4998830;28;20056;-64
2022/12/27 10:17:44;;;;;;;6.10;2.83;;;;;;;9.95;57.80;101187.88;5012175;28;20391;-64
2022/12/27 10:20:23;;;;;;;7.38;3.40;;;;;;;9.65;57.53;101189.81;5013702;28;20053;-64
2022/12/27 10:22:53;;;;;;;6.53;3.00;;;;;;;10.28;57.40;101174.19;5012180;28;20058;-64
2022/12/27 10:25:23;;;;;;;8.27;4.40;;;;;;;11.36;55.72;101188.41;5012780;28;20490;-64
2022/12/27 10:27:51;;;;;;;;;;;;;;;12.13;52.40;101172.38;5012403;28;20129;-64
2022/12/27 10:30:22;;;;;;;5.35;2.72;;;;;;;16.66;43.47;101168.78;5008667;28;19922;-64
2022/12/27 10:32:50;;;;;;;9.00;3.20;;;;;;;18.56;39.18;101147.72;5013057;28;20050;-64
2022/12/27 10:35:19;;;;;;;6.05;2.22;;;;;;;18.87;36.60;101151.94;5011284;28;20050;-64
2022/12/27 10:37:47;;;;;;;11.50;3.85;;;;;;;19.00;37.27;101159.25;5012178;28;20064;-64
2022/12/27 10:40:19;;;;;;;8.98;2.38;;;;;;;19.17;36.33;101157.31;5012630;28;20053;-65
2022/12/27 10:42:59;;;;;;;6.63;2.28;;;;;;;15.79;42.57;101169.06;5011803;28;20406;-65
2022/12/27 10:45:32;;;;;;;6.68;2.60;;;;;;;14.48;44.38;101170.84;5010260;28;20060;-64
2022/12/27 10:48:19;;;;;;;6.80;2.60;;;;;;;15.27;43.98;101169.91;5011771;28;20388;-64
2022/12/27 10:50:51;;;;;;;5.70;2.70;;;;;;;14.02;45.71;101170.09;5012031;28;20054;-64
2022/12/27 10:53:33;;;;;;;12.43;3.22;;;;;;;16.58;41.47;101169.66;5011527;28;20407;-65
2022/12/27 10:56:10;;;;;;;5.28;2.45;;;;;;;17.90;38.77;101164.75;5013226;28;20061;-65
2022/12/27 10:58:42;;;;;;;6.82;2.40;;;;;;;16.69;40.42;101159.66;5009534;28;20061;-65
2022/12/27 11:01:22;;;;;;;5.45;2.50;;;;;;;16.28;41.61;101174.41;5008325;28;20058;-65
2022/12/27 11:03:49;;;;;;;6.68;2.90;;;;;;;16.50;40.10;101176.94;5012334;28;20050;-64
2022/12/27 11:06:21;;;;;;;8.45;3.03;;;;;;;17.40;39.05;101172.94;5010428;28;20058;-64
2022/12/27 11:08:48;;;;;;;5.35;2.50;;;;;;;16.38;40.26;101179.69;5011996;28;20506;-65
2022/12/27 11:11:19;;;;;;;6.28;3.42;;;;;;;19.21;35.58;101195.81;5011960;28;20058;-64
2022/12/27 11:13:47;;;;;;;8.45;2.50;;;;;;;16.12;40.29;101188.16;5009983;28;20415;-64
2022/12/27 11:16:19;;;;;;;7.60;3.35;;;;;;;17.26;38.82;101189.31;5009591;28;20422;-64
2022/12/27 11:18:50;;;;;;;4.70;2.60;;;;;;;15.09;42.38;101185.88;5009648;28;20420;-65
2022/12/27 11:21:18;;;;;;;7.35;2.38;;;;;;;13.49;46.63;101191.31;5008467;28;20050;-68
2022/12/27 11:23:49;;;;;;;6.50;2.70;;;;;;;13.71;46.70;101187.72;5008935;28;20050;-64
2022/12/27 11:26:25;;;;;;;4.82;2.45;;;;;;;14.01;46.01;101182.47;5012231;28;20379;-64
2022/12/27 11:28:55;;;;;;;5.25;2.90;;;;;;;14.99;43.80;101181.41;5009978;28;20426;-64
2022/12/27 11:31:38;;;;;;;5.63;2.60;;;;;;;14.18;44.94;101182.56;5011425;28;20058;-64
2022/12/27 11:34:14;;;;;;;6.95;2.45;;;;;;;13.43;46.92;101183.38;5012144;28;20379;-64
2022/12/27 11:36:45;;;;;;;7.00;2.72;;;;;;;13.23;48.32;101191.06;5012037;28;20430;-64
2022/12/27 11:39:37;;;;;;;6.80;2.78;;;;;;;13.71;46.35;101187.72;5012000;28;20053;-64
2022/12/27 11:42:08;;;;;;;6.15;3.15;;;;;;;14.29;45.36;101191.50;5011399;28;20054;-64
2022/12/27 11:44:40;;;;;;;8.02;3.08;;;;;;;13.86;45.30;101196.84;5009467;28;20054;-64
2022/12/27 11:47:15;;;;;;;9.57;3.05;;;;;;;13.58;47.44;101185.78;5012596;28;20430;-64
2022/12/27 11:49:50;;;;;;;23.67;22.20;;;;;;;14.87;43.91;101183.22;5012103;28;20069;-64
2022/12/27 11:52:39;;;;;;;13.00;11.85;;;;;;;16.18;41.11;101179.22;5012571;28;20498;-64
2022/12/27 11:55:34;;;;;;;14.63;13.77;;;;;;;18.46;37.00;101182.03;5012366;28;20045;-64
2022/12/27 11:58:34;;;;;;;31.05;29.42;;;;;;;17.90;37.36;101185.28;5010745;28;20492;-64
2022/12/27 12:01:21;;;;;;;3.58;2.40;;;;;;;16.33;39.78;101177.03;5012561;28;20471;-64
2022/12/27 12:04:18;;;;;;;5.65;2.60;;;;;;;14.92;43.56;101181.06;5011874;28;20057;-64
2022/12/27 12:06:57;;;;;;;31.77;29.98;;;;;;;15.78;42.29;101196.31;5006882;28;20054;-64
2022/12/27 12:09:43;;;;;;;55.70;52.95;;;;;;;16.57;40.09;101177.28;5011962;28;20486;-64
2022/12/27 12:12:40;;;;;;;7.45;4.00;;;;;;;15.37;41.97;101180.81;5010263;28;20695;-64
2022/12/27 12:15:36;;;;;;;6.90;3.42;;;;;;;15.58;42.11;101168.88;5004993;28;20058;-64
2022/12/27 12:18:22;;;;;;;10.57;5.75;;;;;;;15.79;41.91;101164.28;5011915;28;20061;-64
2022/12/27 12:21:22;;;;;;;6.72;3.05;;;;;;;15.10;43.83;101175.47;5012415;28;20054;-64
2022/12/27 12:24:16;;;;;;;5.38;2.90;;;;;;;14.05;45.11;101163.03;5015293;28;20053;-63
2022/12/27 12:26:55;;;;;;;9.52;3.65;;;;;;;13.45;46.33;101161.50;5013436;28;20076;-63
2022/12/27 12:29:53;;;;;;;5.95;3.47;;;;;;;12.72;48.52;101172.59;5016187;28;20054;-64
2022/12/27 12:32:35;;;;;;;6.43;3.58;;;;;;;12.54;50.06;101172.41;5016160;28;20060;-63
2022/12/27 12:35:25;;;;;;;5.80;4.85;;;;;;;12.69;49.21;101156.47;5015840;28;20057;-63
2022/12/27 12:38:27;;;;;;;10.95;3.47;;;;;;;11.98;50.52;101160.34;5014636;28;20403;-62
2022/12/27 12:41:11;;;;;;;10.75;3.90;;;;;;;11.57;52.21;101160.22;4982085;28;20510;-64
2022/12/27 12:44:13;;;;;;;11.00;4.13;;;;;;;11.37;53.26;101156.59;5015127;28;20050;-64
2022/12/27 12:46:51;;;;;;;8.13;3.63;;;;;;;10.93;53.97;101156.97;5015396;28;20402;-63
2022/12/27 12:49:46;;;;;;;6.47;3.55;;;;;;;10.62;55.08;101156.56;5015591;28;20050;-64
2022/12/27 12:52:39;;;;;;;5.82;4.03;;;;;;;10.36;55.34;101154.09;5014623;28;20483;-62
2022/12/27 12:55:25;;;;;;;6.60;3.88;;;;;;;10.29;56.20;101139.63;4995322;28;20404;-63
2022/12/27 12:58:06;;;;;;;8.25;3.45;;;;;;;10.33;56.15;101132.38;4995551;28;20468;-64
2022/12/27 13:00:54;;;;;;;7.78;3.78;;;;;;;10.06;57.25;101122.66;4995456;28;20058;-63
2022/12/27 13:03:44;;;;;;;8.25;3.58;;;;;;;10.07;57.89;101118.72;5011445;28;20065;-63
2022/12/27 13:06:25;;;;;;;7.85;3.80;;;;;;;10.08;57.71;101109.28;4995609;28;20051;-63
2022/12/27 13:09:02;;;;;;;11.05;3.30;;;;;;;10.25;57.34;101110.75;4995215;28;20065;-64
2022/12/27 13:11:44;;;;;;;6.95;3.17;;;;;;;10.36;56.81;101120.66;5003584;28;20065;-64
2022/12/27 13:14:58;;;;;;;8.05;2.75;;;;;;;10.20;56.91;101113.59;5014947;28;20395;-64
2022/12/27 13:17:35;;;;;;;7.00;3.30;;;;;;;10.13;57.18;101102.81;4987906;28;20386;-64
2022/12/27 13:20:29;;;;;;;7.30;3.58;;;;;;;10.13;57.39;101098.06;5008580;28;20486;-64
2022/12/27 13:23:06;;;;;;;8.70;3.67;;;;;;;9.98;58.59;101098.25;5010546;28;20057;-63
2022/12/27 13:25:42;;;;;;;7.35;3.30;;;;;;;9.92;58.57;101094.69;5007031;28;20050;-62
2022/12/27 13:28:27;;;;;;;7.63;2.65;;;;;;;9.80;58.69;101082.28;5013774;28;20513;-64
2022/12/27 13:31:00;;;;;;;6.22;2.80;;;;;;;9.62;59.15;101079.16;5014877;28;20061;-64